Time;durP1;ratioP1;P1;durP2;ratioP2;P2;SDS_P1;SDS_P2;PMS_P1;PMS_P2;Temp;Humidity;BMP_temperature;BMP_pressure;BME280_temperature;BME280_humidity;BME280_pressure;Samples;Min_cycle;Max_cycle;Signal;HPM_P1;HPM_P2
2021/03/09 00:00:17;;;;;;;319.23;159.27;;;;;;;-1.45;60.09;101063.96;128114;1100;23257;-74
2021/03/09 00:03:05;;;;;;;306.47;149.32;;;;;;;-1.45;60.11;101069.14;128138;1100;25107;-74
2021/03/09 00:05:34;;;;;;;308.43;150.75;;;;;;;-1.41;60.51;101064.66;128163;1101;22529;-74
2021/03/09 00:08:02;;;;;;;306.38;148.00;;;;;;;-1.38;59.90;101068.86;128195;1100;24616;-74
2021/03/09 00:10:30;;;;;;;303.05;149.32;;;;;;;-1.39;60.22;101064.59;128195;1100;22570;-73
2021/03/09 00:12:58;;;;;;;304.57;151.95;;;;;;;-1.38;60.02;101059.33;127965;1101;22602;-74
2021/03/09 00:15:27;;;;;;;293.12;142.72;;;;;;;-1.36;59.91;101064.45;128112;1101;23445;-74
2021/03/09 00:17:55;;;;;;;268.30;130.85;;;;;;;-1.34;60.13;101066.03;128123;1100;22479;-74
2021/03/09 00:20:23;;;;;;;230.32;117.67;;;;;;;-1.31;59.81;101065.05;128189;1099;22525;-74
2021/03/09 00:22:51;;;;;;;289.38;141.73;;;;;;;-1.27;59.95;101071.76;128145;1100;24385;-74
2021/03/09 00:25:19;;;;;;;337.17;169.70;;;;;;;-1.25;59.73;101067.35;128208;1100;22495;-74
2021/03/09 00:27:51;;;;;;;321.40;161.05;;;;;;;-1.21;60.31;101069.70;127964;1101;22525;-72
2021/03/09 00:30:20;;;;;;;299.55;152.50;;;;;;;-1.21;60.27;101069.70;128188;1100;23409;-75
2021/03/09 00:32:49;;;;;;;308.23;157.43;;;;;;;-1.18;59.89;101063.55;128188;1100;22505;-73
2021/03/09 00:35:18;;;;;;;310.55;152.95;;;;;;;-1.17;60.19;101070.39;128227;1101;24341;-74
2021/03/09 00:37:46;;;;;;;287.00;145.97;;;;;;;-1.15;59.92;101073.77;128148;1101;25117;-74
2021/03/09 00:40:14;;;;;;;284.67;140.30;;;;;;;-1.15;59.61;101073.77;127918;1101;22570;-74
2021/03/09 00:42:42;;;;;;;276.27;138.22;;;;;;;-1.15;59.49;101071.17;128183;1099;24530;-74
2021/03/09 00:45:11;;;;;;;292.70;144.45;;;;;;;-1.17;60.26;101070.39;127929;1101;22507;-74
2021/03/09 00:47:58;;;;;;;302.82;149.18;;;;;;;-1.19;59.97;101067.06;128194;1100;22951;-74
2021/03/09 00:50:27;;;;;;;248.25;130.78;;;;;;;-1.20;59.63;101062.77;128153;1101;22957;-75
2021/03/09 00:52:56;;;;;;;270.70;136.05;;;;;;;-1.22;59.89;101060.27;128197;1099;22579;-74
2021/03/09 00:55:24;;;;;;;298.80;151.45;;;;;;;-1.23;60.07;101061.19;128135;1101;25128;-74
2021/03/09 00:57:57;;;;;;;302.27;156.40;;;;;;;-1.24;59.93;101061.25;128205;1099;22529;-74
2021/03/09 01:00:29;;;;;;;294.98;152.27;;;;;;;-1.23;60.11;101066.38;128237;1099;22523;-74
2021/03/09 01:02:57;;;;;;;262.80;137.50;;;;;;;-1.24;60.15;101059.48;127962;1101;22500;-74
2021/03/09 01:05:26;;;;;;;246.53;123.87;;;;;;;-1.25;60.03;101059.58;128289;1101;24351;-74
2021/03/09 01:07:54;;;;;;;263.23;135.40;;;;;;;-1.27;59.93;101051.02;128199;1099;24567;-73
2021/03/09 01:10:23;;;;;;;270.65;138.75;;;;;;;-1.28;60.13;101054.53;128219;1101;22478;-74
2021/03/09 01:12:51;;;;;;;302.93;153.90;;;;;;;-1.26;60.01;101055.31;127947;1100;22492;-74
2021/03/09 01:15:19;;;;;;;327.45;171.32;;;;;;;-1.27;60.48;101048.43;127937;1101;22492;-73
2021/03/09 01:17:47;;;;;;;313.40;165.87;;;;;;;-1.27;60.20;101051.86;127958;1101;23500;-74
2021/03/09 01:20:16;;;;;;;319.68;160.67;;;;;;;-1.25;60.65;101046.61;128190;1101;22501;-74
2021/03/09 01:22:44;;;;;;;306.57;156.12;;;;;;;-1.28;60.35;101044.17;128294;1100;22492;-73
2021/03/09 01:25:13;;;;;;;293.77;150.00;;;;;;;-1.29;60.33;101047.69;128236;1101;22969;-74
2021/03/09 01:27:41;;;;;;;303.35;152.97;;;;;;;-1.29;60.40;101045.09;127993;1100;22495;-73
2021/03/09 01:30:11;;;;;;;279.65;141.25;;;;;;;-1.29;60.58;101045.09;128171;1101;24700;-73
2021/03/09 01:32:39;;;;;;;287.80;141.30;;;;;;;-1.35;60.42;101045.38;127966;1099;23106;-74
2021/03/09 01:35:10;;;;;;;273.80;141.85;;;;;;;-1.43;60.23;101038.83;128146;1100;22520;-74
2021/03/09 01:37:38;;;;;;;274.62;139.20;;;;;;;-1.48;60.77;101042.55;128160;1101;22514;-74
2021/03/09 01:40:11;;;;;;;277.90;138.57;;;;;;;-1.51;60.73;101033.16;128157;1099;22477;-74
2021/03/09 01:42:40;;;;;;;275.48;139.40;;;;;;;-1.49;61.29;101028.75;127988;1101;24587;-73
2021/03/09 01:45:10;;;;;;;244.50;124.92;;;;;;;-1.46;61.16;101032.95;127999;1099;24372;-73
2021/03/09 01:47:48;;;;;;;290.25;148.15;;;;;;;-1.44;60.84;101034.53;128263;1101;23219;-73
2021/03/09 01:50:19;;;;;;;296.07;154.03;;;;;;;-1.42;61.07;101032.72;128232;1100;22499;-73
2021/03/09 01:52:48;;;;;;;287.93;145.83;;;;;;;-1.39;61.13;101026.55;128237;1100;22526;-74
2021/03/09 01:55:16;;;;;;;309.70;155.52;;;;;;;-1.33;61.33;101022.80;128253;1100;22529;-74
2021/03/09 01:57:45;;;;;;;321.77;168.45;;;;;;;-1.26;61.70;101025.05;127998;1101;24439;-74
2021/03/09 02:00:14;;;;;;;305.30;161.60;;;;;;;-1.27;61.08;101028.52;127948;1101;23420;-74
2021/03/09 02:02:43;;;;;;;306.85;160.75;;;;;;;-1.24;61.33;101032.73;128185;1101;22481;-74
2021/03/09 02:05:14;;;;;;;315.12;166.28;;;;;;;-1.19;61.54;101033.36;128047;1101;22525;-74
2021/03/09 02:07:42;;;;;;;335.30;176.05;;;;;;;-1.15;61.62;101032.28;128252;1101;22501;-74
2021/03/09 02:10:14;;;;;;;331.63;178.47;;;;;;;-1.13;61.52;101030.47;128132;1100;22488;-74
2021/03/09 02:13:25;;;;;;;329.93;176.40;;;;;;;-1.11;61.15;101022.59;128214;1101;22529;-74
2021/03/09 02:16:26;;;;;;;324.40;170.87;;;;;;;-1.13;61.31;101014.04;128188;1100;22511;-74
2021/03/09 02:19:17;;;;;;;294.50;151.87;;;;;;;-1.14;61.59;101010.61;128145;1100;22525;-74
2021/03/09 02:22:45;;;;;;;272.52;146.98;;;;;;;-1.14;61.54;101004.59;128189;1099;22491;-74
2021/03/09 02:25:53;;;;;;;253.55;133.55;;;;;;;-1.17;61.08;101005.58;128013;1101;22558;-74
2021/03/09 02:28:54;;;;;;;258.23;135.25;;;;;;;-1.21;61.14;101015.27;128157;1101;22623;-73
2021/03/09 02:31:26;;;;;;;268.07;138.77;;;;;;;-1.20;61.11;101009.19;127948;1100;22494;-74
2021/03/09 02:33:59;;;;;;;;;;;;;;;-1.21;60.82;101015.27;128006;1101;22599;-73
2021/03/09 02:36:31;;;;;;;197.85;99.45;;;;;;;-1.26;61.02;101022.45;128251;1100;21379;-73
2021/03/09 02:39:06;;;;;;;;;;;;;;;-1.31;61.07;101024.41;128273;1099;22527;-73
2021/03/09 02:41:45;;;;;;;190.25;99.32;;;;;;;-1.34;61.53;101024.56;128259;1101;21368;-76
2021/03/09 02:44:21;;;;;;;210.28;109.97;;;;;;;-1.30;61.44;101014.88;128209;1101;25074;-74
2021/03/09 02:46:50;;;;;;;221.55;112.75;;;;;;;-1.24;61.43;101015.41;127947;1101;22472;-74
2021/03/09 02:49:30;;;;;;;216.17;114.75;;;;;;;-1.21;61.36;101015.27;127932;1101;25831;-74
2021/03/09 02:52:01;;;;;;;231.68;122.00;;;;;;;-1.17;61.24;101017.70;127946;1101;23579;-74
2021/03/09 02:54:31;;;;;;;216.15;116.75;;;;;;;-1.23;60.89;101018.88;128251;1100;24186;-74
2021/03/09 02:57:01;;;;;;;221.70;113.75;;;;;;;-1.31;60.92;101014.05;128199;1099;24619;-74
2021/03/09 02:59:32;;;;;;;238.75;124.55;;;;;;;-1.38;60.91;101017.02;128150;1099;23334;-74
2021/03/09 03:02:00;;;;;;;237.25;120.95;;;;;;;-1.36;61.03;101021.22;127919;1101;22523;-74
2021/03/09 03:04:30;;;;;;;244.82;127.00;;;;;;;-1.34;60.93;101021.97;127939;1099;22493;-74
2021/03/09 03:07:00;;;;;;;237.20;127.10;;;;;;;-1.35;60.94;101024.66;128187;1100;24388;-74
2021/03/09 03:09:29;;;;;;;227.97;121.53;;;;;;;-1.34;61.28;101019.38;128252;1099;23028;-74
2021/03/09 03:11:58;;;;;;;237.48;128.93;;;;;;;-1.32;61.12;101014.97;128192;1101;22490;-74
2021/03/09 03:14:26;;;;;;;251.90;133.43;;;;;;;-1.27;61.24;101017.32;128020;1101;24638;-74
2021/03/09 03:16:54;;;;;;;243.30;130.43;;;;;;;-1.25;61.37;101016.34;128116;1101;23317;-73
2021/03/09 03:19:24;;;;;;;229.60;129.35;;;;;;;-1.23;61.30;101024.06;128180;1101;22530;-73
2021/03/09 03:21:53;;;;;;;253.62;135.00;;;;;;;-1.23;61.42;101018.88;127952;1101;22508;-74
2021/03/09 03:24:21;;;;;;;245.82;131.65;;;;;;;-1.22;61.59;101005.82;128162;1101;22492;-73
2021/03/09 03:26:52;;;;;;;231.93;125.97;;;;;;;-1.24;61.38;101015.41;127960;1101;22604;-74
2021/03/09 03:29:21;;;;;;;215.97;119.82;;;;;;;-1.33;61.40;101005.52;128223;1101;22579;-73
2021/03/09 03:31:50;;;;;;;238.95;125.65;;;;;;;-1.37;61.72;101010.91;128133;1101;23373;-73
2021/03/09 03:34:18;;;;;;;228.85;126.15;;;;;;;-1.36;61.42;101005.67;128043;1101;22513;-74
2021/03/09 03:36:48;;;;;;;213.47;114.75;;;;;;;-1.31;61.61;101011.45;127966;1101;22617;-74
2021/03/09 03:39:17;;;;;;;201.98;111.00;;;;;;;-1.29;61.64;101006.21;128009;1101;22497;-73
2021/03/09 03:41:46;;;;;;;196.82;104.70;;;;;;;-1.31;61.44;101005.44;128177;1101;22511;-74
2021/03/09 03:44:14;;;;;;;192.72;103.62;;;;;;;-1.32;61.91;101002.01;128167;1101;22495;-74
2021/03/09 03:46:42;;;;;;;178.40;101.02;;;;;;;-1.33;61.89;101005.52;127986;1100;22594;-72
2021/03/09 03:49:11;;;;;;;204.53;110.78;;;;;;;-1.31;61.99;101003.67;127966;1101;24265;-72
2021/03/09 03:51:46;;;;;;;211.40;117.87;;;;;;;-1.30;61.72;101005.38;128205;1100;22619;-72
2021/03/09 03:54:48;;;;;;;189.87;104.85;;;;;;;-1.27;62.12;101002.60;127986;1101;22495;-73
2021/03/09 03:57:31;;;;;;;190.80;105.70;;;;;;;-1.26;61.96;100998.28;128208;1100;24485;-73
2021/03/09 04:00:04;;;;;;;178.93;100.67;;;;;;;-1.26;62.25;100996.53;127928;1101;22520;-75
2021/03/09 04:02:36;;;;;;;167.40;94.30;;;;;;;-1.22;61.97;100999.80;128153;1100;22502;-73
2021/03/09 04:05:08;;;;;;;173.53;91.87;;;;;;;-1.22;61.93;100999.80;128198;1100;22511;-75
2021/03/09 04:07:39;;;;;;;171.80;94.07;;;;;;;-1.23;62.37;100998.97;128006;1101;24338;-73
2021/03/09 04:10:08;;;;;;;169.95;91.90;;;;;;;-1.25;62.05;100993.01;127957;1101;23219;-74
2021/03/09 04:12:36;;;;;;;178.32;98.05;;;;;;;-1.30;61.86;100988.95;127959;1101;24604;-73
2021/03/09 04:15:06;;;;;;;176.70;99.03;;;;;;;-1.42;62.08;101001.62;127999;1100;22583;-73
2021/03/09 04:17:35;;;;;;;162.15;89.58;;;;;;;-1.53;62.69;100998.72;128175;1099;22529;-74
2021/03/09 04:20:05;;;;;;;170.55;95.95;;;;;;;-1.62;62.60;100999.16;127987;1101;25295;-73
2021/03/09 04:22:35;;;;;;;188.18;105.05;;;;;;;-1.70;62.94;101004.72;128233;1100;24336;-74
2021/03/09 04:25:04;;;;;;;188.82;103.32;;;;;;;-1.77;63.04;101005.06;127917;1101;25099;-74
2021/03/09 04:27:33;;;;;;;186.90;100.95;;;;;;;-1.84;63.51;101001.09;128245;1100;22564;-74
2021/03/09 04:30:04;;;;;;;188.85;103.17;;;;;;;-1.89;64.00;100996.14;128189;1099;22592;-73
2021/03/09 04:32:33;;;;;;;185.18;102.70;;;;;;;-1.92;63.98;100997.11;127959;1101;22617;-73
2021/03/09 04:35:01;;;;;;;167.60;95.05;;;;;;;-1.96;63.74;100995.59;128181;1101;25120;-73
2021/03/09 04:37:41;;;;;;;165.82;94.58;;;;;;;-2.01;63.85;100994.95;127954;1101;22505;-72
2021/03/09 04:40:10;;;;;;;169.43;96.05;;;;;;;-2.05;64.01;101000.35;128271;1101;24338;-73
2021/03/09 04:42:39;;;;;;;172.17;95.63;;;;;;;-2.05;64.42;100990.83;128249;1101;22530;-74
2021/03/09 04:45:08;;;;;;;171.35;93.40;;;;;;;-2.01;64.74;100994.95;127946;1099;22528;-74
2021/03/09 04:47:37;;;;;;;144.93;85.12;;;;;;;-1.95;64.63;100996.42;128140;1100;22619;-73
2021/03/09 04:50:09;;;;;;;134.22;78.95;;;;;;;-1.96;64.70;100997.34;128188;1101;24618;-74
2021/03/09 04:52:38;;;;;;;;;;;;;;;-2.06;64.33;100993.51;128031;1101;23221;-74
2021/03/09 04:55:08;;;;;;;212.68;111.00;;;;;;;-2.14;64.79;100986.08;128063;1101;21310;-73
2021/03/09 04:57:42;;;;;;;317.87;178.82;;;;;;;-2.09;64.94;100988.47;128031;1101;22576;-74
2021/03/09 05:00:25;;;;;;;329.52;191.37;;;;;;;-2.02;65.07;100993.28;128133;1101;22481;-74
2021/03/09 05:02:54;;;;;;;258.10;135.70;;;;;;;-1.95;65.46;100993.83;128008;1101;22538;-74
2021/03/09 05:05:24;;;;;;;227.28;119.80;;;;;;;-1.89;65.10;100988.38;128010;1101;22490;-73
2021/03/09 05:07:53;;;;;;;232.92;118.77;;;;;;;-1.83;64.99;100989.81;127930;1101;22518;-73
2021/03/09 05:10:21;;;;;;;234.45;116.53;;;;;;;-1.79;64.91;100993.95;127999;1101;22544;-73
2021/03/09 05:12:50;;;;;;;171.20;95.70;;;;;;;-1.79;64.76;100993.95;128196;1099;22649;-73
2021/03/09 05:15:19;;;;;;;127.58;77.58;;;;;;;-1.85;64.45;101002.84;127982;1101;22533;-73
2021/03/09 05:17:47;;;;;;;123.70;72.27;;;;;;;-1.93;64.97;100997.20;128192;1101;22543;-73
2021/03/09 05:20:20;;;;;;;169.30;95.47;;;;;;;-1.97;64.65;100993.05;128303;1100;22496;-74
2021/03/09 05:22:48;;;;;;;216.40;107.50;;;;;;;-1.95;64.88;101002.44;128229;1101;23485;-76
2021/03/09 05:25:17;;;;;;;202.20;105.52;;;;;;;-1.89;65.73;101001.32;128238;1101;22535;-75
2021/03/09 05:27:49;;;;;;;194.50;97.42;;;;;;;-1.80;65.62;101000.03;128001;1101;22490;-74
2021/03/09 05:30:21;;;;;;;173.65;98.67;;;;;;;-1.73;65.37;101006.63;127980;1101;22487;-73
2021/03/09 05:32:49;;;;;;;161.47;88.42;;;;;;;-1.72;65.15;101008.28;128250;1101;22496;-73
2021/03/09 05:35:18;;;;;;;151.10;85.35;;;;;;;-1.70;65.41;101001.27;127992;1101;22713;-73
2021/03/09 05:37:47;;;;;;;149.60;81.00;;;;;;;-1.70;65.14;101014.22;128222;1100;24642;-74
2021/03/09 05:40:17;;;;;;;162.72;87.67;;;;;;;-1.69;65.20;101008.14;127950;1101;22569;-75
2021/03/09 05:42:51;;;;;;;155.37;82.40;;;;;;;-1.60;65.52;101006.84;128221;1100;22599;-74
2021/03/09 05:45:22;;;;;;;125.38;66.02;;;;;;;-1.53;65.74;101008.25;128300;1099;22483;-74
2021/03/09 05:47:52;;;;;;;125.23;67.57;;;;;;;-1.48;65.39;101008.86;128231;1101;24623;-74
2021/03/09 05:50:21;;;;;;;117.05;62.55;;;;;;;-1.44;65.57;101013.80;128018;1101;22504;-75
2021/03/09 05:52:49;;;;;;;116.05;68.90;;;;;;;-1.36;65.28;101005.67;128246;1100;23225;-74
2021/03/09 05:55:17;;;;;;;166.85;86.15;;;;;;;-1.26;65.86;101011.25;127910;1101;22622;-74
2021/03/09 05:57:46;;;;;;;116.50;67.50;;;;;;;-1.20;65.40;101016.97;127941;1100;24689;-74
2021/03/09 06:00:16;;;;;;;108.95;65.42;;;;;;;-1.15;65.20;100998.58;128174;1101;23362;-74
2021/03/09 06:02:44;;;;;;;101.45;63.98;;;;;;;-1.08;65.14;101009.48;127945;1099;22492;-73
2021/03/09 06:05:13;;;;;;;122.13;64.03;;;;;;;-1.01;65.41;101006.48;127937;1101;22625;-73
2021/03/09 06:07:41;;;;;;;108.37;61.23;;;;;;;-0.96;65.55;101006.27;128181;1101;25085;-74
2021/03/09 06:10:24;;;;;;;92.90;59.42;;;;;;;-0.89;65.19;101006.80;128140;1099;22509;-73
2021/03/09 06:12:53;;;;;;;81.12;49.08;;;;;;;-0.92;64.49;101002.60;128155;1101;23267;-74
2021/03/09 06:15:21;;;;;;;83.47;48.85;;;;;;;-0.97;64.49;100997.66;128210;1101;22524;-74
2021/03/09 06:17:58;;;;;;;65.78;39.73;;;;;;;-1.02;64.57;101010.01;128197;1099;24591;-73
2021/03/09 06:20:31;;;;;;;95.12;64.85;;;;;;;-1.10;64.15;101012.16;128039;1101;22601;-74
2021/03/09 06:23:01;;;;;;;109.90;77.27;;;;;;;-1.13;64.71;101014.91;128175;1101;22660;-74
2021/03/09 06:25:39;;;;;;;68.10;42.48;;;;;;;-1.12;64.69;101015.74;127903;1100;23400;-74
2021/03/09 06:28:10;;;;;;;67.12;42.62;;;;;;;-1.11;64.56;101014.81;128225;1100;22542;-74
2021/03/09 06:30:41;;;;;;;66.35;42.45;;;;;;;-1.06;64.85;101016.27;127967;1101;24350;-74
2021/03/09 06:33:09;;;;;;;61.75;39.10;;;;;;;-1.02;64.68;101020.38;127961;1101;22810;-73
2021/03/09 06:35:42;;;;;;;66.67;39.45;;;;;;;-0.95;64.68;101016.56;127975;1101;24344;-74
2021/03/09 06:38:17;;;;;;;52.25;34.67;;;;;;;-0.89;64.56;101019.77;127946;1101;22541;-74
2021/03/09 06:41:16;;;;;;;60.87;35.80;;;;;;;-0.86;64.37;101022.21;128177;1099;23460;-75
2021/03/09 06:44:02;;;;;;;74.12;42.33;;;;;;;-0.84;64.64;101028.14;128177;1099;22537;-74
2021/03/09 06:46:46;;;;;;;74.30;43.20;;;;;;;-0.79;64.85;101027.00;128205;1101;22573;-74
2021/03/09 06:49:14;;;;;;;72.10;43.58;;;;;;;-0.73;64.30;101031.88;128174;1100;22529;-73
2021/03/09 06:51:43;;;;;;;68.50;40.90;;;;;;;-0.66;64.38;101024.62;128220;1101;22579;-74
2021/03/09 06:54:12;;;;;;;74.15;44.38;;;;;;;-0.63;64.21;101031.38;128186;1099;22504;-73
2021/03/09 06:56:45;;;;;;;86.97;49.65;;;;;;;-0.56;64.20;101032.77;127945;1101;22501;-73
2021/03/09 06:59:24;;;;;;;80.92;42.73;;;;;;;-0.49;63.80;101041.91;128241;1101;22503;-74
2021/03/09 07:02:06;;;;;;;60.55;37.38;;;;;;;-0.37;64.27;101038.65;128135;1101;22550;-73
2021/03/09 07:04:50;;;;;;;52.58;32.50;;;;;;;-0.25;64.34;101038.01;128002;1101;23593;-76
2021/03/09 07:07:34;;;;;;;62.40;37.88;;;;;;;-0.07;64.30;101033.61;128052;1101;22577;-77
2021/03/09 07:10:16;;;;;;;52.00;33.65;;;;;;;0.08;63.51;101033.69;128218;1101;24604;-74
2021/03/09 07:12:47;;;;;;;51.13;31.73;;;;;;;0.15;62.69;101040.22;128171;1101;23323;-72
2021/03/09 07:15:25;;;;;;;42.78;22.95;;;;;;;0.24;62.96;101037.13;127969;1100;22512;-72
2021/03/09 07:17:54;;;;;;;37.50;23.98;;;;;;;0.28;62.48;101041.22;128166;1099;22598;-73
2021/03/09 07:20:22;;;;;;;58.02;32.63;;;;;;;0.41;62.49;101044.81;128262;1101;23076;-73
2021/03/09 07:22:53;;;;;;;42.40;25.45;;;;;;;0.57;62.24;101044.80;127972;1101;24587;-72
2021/03/09 07:25:25;;;;;;;44.85;23.75;;;;;;;0.69;62.17;101044.08;128272;1099;23235;-73
2021/03/09 07:28:03;;;;;;;;;;;;;;;0.69;60.81;101041.48;128238;1101;22552;-72
2021/03/09 07:30:38;;;;;;;39.38;22.77;;;;;;;0.91;62.25;101040.27;127948;1101;21311;-73
2021/03/09 07:33:08;;;;;;;39.53;23.85;;;;;;;1.15;61.47;101038.83;127951;1101;22482;-72
2021/03/09 07:35:37;;;;;;;38.53;23.55;;;;;;;1.32;60.77;101044.80;128237;1100;22487;-72
2021/03/09 07:38:07;;;;;;;41.05;24.55;;;;;;;1.49;60.45;101043.79;127919;1101;22504;-73
2021/03/09 07:40:36;;;;;;;31.87;18.77;;;;;;;1.64;59.90;101037.66;127998;1101;22945;-74
2021/03/09 07:43:06;;;;;;;33.00;21.85;;;;;;;2.07;60.73;101038.45;128264;1099;23394;-73
2021/03/09 07:45:37;;;;;;;31.23;20.73;;;;;;;2.56;60.30;101044.91;128203;1100;22505;-73
2021/03/09 07:48:12;;;;;;;31.73;21.97;;;;;;;2.77;58.46;101043.52;128206;1101;24434;-73
2021/03/09 07:50:46;;;;;;;29.87;17.52;;;;;;;2.99;57.70;101042.92;128172;1099;22595;-74
2021/03/09 07:53:22;;;;;;;27.77;15.90;;;;;;;3.30;56.20;101049.55;128242;1100;22488;-73
2021/03/09 07:56:13;;;;;;;25.85;16.42;;;;;;;3.55;55.35;101037.42;127961;1101;25161;-73
2021/03/09 07:58:41;;;;;;;43.98;24.25;;;;;;;3.84;54.50;101035.41;127963;1101;22630;-73
2021/03/09 08:01:10;;;;;;;29.45;16.05;;;;;;;4.00;52.80;101035.17;128195;1099;24331;-72
2021/03/09 08:03:44;;;;;;;23.47;15.13;;;;;;;3.86;51.17;101040.52;127969;1101;24578;-71
2021/03/09 08:06:15;;;;;;;27.50;16.85;;;;;;;3.45;50.82;101042.44;128288;1099;22498;-72
2021/03/09 08:08:53;;;;;;;24.50;16.57;;;;;;;3.53;52.25;101026.23;127979;1099;24587;-74
2021/03/09 08:11:23;;;;;;;28.27;17.52;;;;;;;4.01;53.49;101028.98;128158;1101;22497;-73
2021/03/09 08:14:02;;;;;;;25.90;15.98;;;;;;;4.58;53.34;101028.34;128224;1100;24388;-73
2021/03/09 08:16:40;;;;;;;24.47;14.60;;;;;;;5.02;51.71;101020.75;128211;1099;22511;-73
2021/03/09 08:19:25;;;;;;;26.73;15.90;;;;;;;5.10;49.73;101026.27;128104;1099;22539;-74
2021/03/09 08:22:01;;;;;;;24.63;15.90;;;;;;;5.09;49.79;101027.19;128211;1101;22504;-73
2021/03/09 08:24:42;;;;;;;20.70;12.43;;;;;;;4.64;47.55;101019.22;127985;1101;22499;-73
2021/03/09 08:27:38;;;;;;;17.70;12.60;;;;;;;4.03;48.36;101024.47;128224;1101;23282;-73
2021/03/09 08:30:25;;;;;;;17.87;11.22;;;;;;;3.73;48.42;101023.09;128175;1101;22508;-73
2021/03/09 08:33:24;;;;;;;21.07;13.45;;;;;;;3.65;50.33;101019.33;128150;1099;22634;-72
2021/03/09 08:35:53;;;;;;;24.02;16.02;;;;;;;4.11;50.77;101021.33;128245;1099;24634;-72
2021/03/09 08:38:24;;;;;;;29.23;19.52;;;;;;;4.48;49.81;101019.50;127949;1101;22492;-72
2021/03/09 08:41:05;;;;;;;18.82;12.65;;;;;;;4.60;48.94;101018.61;128101;1099;22504;-73
2021/03/09 08:43:34;;;;;;;27.90;14.65;;;;;;;4.91;48.98;101022.39;128281;1101;22605;-72
2021/03/09 08:46:04;;;;;;;22.67;13.90;;;;;;;5.30;49.31;101007.23;127963;1101;24410;-73
2021/03/09 08:48:50;;;;;;;24.50;15.48;;;;;;;5.64;48.44;101010.70;128196;1101;22487;-72
2021/03/09 08:51:41;;;;;;;21.77;12.25;;;;;;;6.26;48.10;101017.17;128027;1100;22485;-73
2021/03/09 08:54:39;;;;;;;19.70;10.82;;;;;;;6.69;46.50;101011.05;128161;1101;22518;-73
2021/03/09 08:57:25;;;;;;;17.23;12.88;;;;;;;7.23;46.10;101007.43;128157;1100;22616;-73
2021/03/09 09:00:04;;;;;;;22.15;15.40;;;;;;;7.39;45.37;101017.45;128258;1100;22743;-74
2021/03/09 09:02:32;;;;;;;20.10;12.55;;;;;;;7.58;44.63;100997.48;128260;1100;24597;-73
2021/03/09 09:05:06;;;;;;;18.48;10.20;;;;;;;7.60;43.77;101003.42;128219;1099;22477;-74
2021/03/09 09:07:41;;;;;;;14.75;9.90;;;;;;;8.00;44.31;101006.07;128138;1099;22482;-73
2021/03/09 09:10:12;;;;;;;15.83;11.37;;;;;;;8.41;42.86;101004.22;128228;1099;23350;-73
2021/03/09 09:12:46;;;;;;;16.75;12.30;;;;;;;8.53;41.50;100999.63;128214;1101;22509;-72
2021/03/09 09:15:32;;;;;;;37.17;15.40;;;;;;;8.88;41.96;100999.06;128247;1100;22529;-72
2021/03/09 09:18:05;;;;;;;15.68;10.70;;;;;;;9.07;41.04;100998.21;128240;1099;22523;-73
2021/03/09 09:20:36;;;;;;;15.13;9.03;;;;;;;9.11;40.25;100999.58;128222;1101;22592;-72
2021/03/09 09:23:23;;;;;;;23.67;13.48;;;;;;;8.71;39.90;100995.34;128232;1100;22626;-73
2021/03/09 09:25:57;;;;;;;23.12;12.18;;;;;;;8.64;40.38;100984.53;128268;1101;24330;-77
2021/03/09 09:28:33;;;;;;;18.95;10.90;;;;;;;8.89;40.71;100992.81;128263;1101;22522;-77
2021/03/09 09:31:19;;;;;;;16.02;10.65;;;;;;;9.09;40.07;100986.53;128261;1099;24345;-78
2021/03/09 09:33:53;;;;;;;16.10;10.35;;;;;;;8.78;38.22;100990.34;128074;1101;22498;-80
2021/03/09 09:36:23;;;;;;;15.70;10.98;;;;;;;8.49;38.99;100980.64;128258;1101;22604;-77
2021/03/09 09:38:56;;;;;;;17.02;10.90;;;;;;;8.28;39.47;100978.12;128139;1101;22528;-76
2021/03/09 09:41:26;;;;;;;12.75;9.43;;;;;;;8.21;38.01;100982.27;128056;1100;22532;-78
2021/03/09 09:43:54;;;;;;;13.35;9.25;;;;;;;8.06;38.33;100979.19;128067;1100;22466;-77
2021/03/09 09:46:32;;;;;;;16.65;9.95;;;;;;;8.22;39.00;100981.30;128303;1100;24565;-77
2021/03/09 09:49:01;;;;;;;18.70;12.03;;;;;;;8.30;37.96;100976.20;128023;1101;24676;-78
2021/03/09 09:51:30;;;;;;;16.65;10.98;;;;;;;8.56;38.66;100975.66;128303;1101;22497;-77
2021/03/09 09:54:17;;;;;;;12.80;8.78;;;;;;;8.43;37.67;100976.78;128208;1101;22484;-78
2021/03/09 09:56:45;;;;;;;11.25;7.75;;;;;;;8.31;37.12;100972.58;128207;1101;22636;-77
2021/03/09 09:59:27;;;;;;;10.15;7.50;;;;;;;8.36;37.34;100980.88;128236;1101;22498;-76
2021/03/09 10:01:55;;;;;;;12.58;8.85;;;;;;;7.98;35.76;100974.61;128187;1101;22630;-76
2021/03/09 10:04:33;;;;;;;19.48;8.30;;;;;;;7.49;36.45;100978.06;127973;1100;22519;-76
2021/03/09 10:07:20;;;;;;;10.60;7.05;;;;;;;6.82;36.12;100979.37;128048;1100;22522;-76
2021/03/09 10:10:09;;;;;;;12.40;7.85;;;;;;;6.42;37.71;100974.78;128265;1101;23382;-76
2021/03/09 10:12:45;;;;;;;11.25;7.92;;;;;;;6.71;38.32;100977.64;128023;1101;22526;-76
2021/03/09 10:15:14;;;;;;;17.00;10.45;;;;;;;6.99;37.76;100975.33;128214;1099;22518;-77
2021/03/09 10:17:42;;;;;;;15.75;10.63;;;;;;;7.14;37.32;100978.47;128211;1099;22489;-75
2021/03/09 10:20:22;;;;;;;14.05;9.70;;;;;;;7.29;37.00;100983.23;128199;1100;22498;-76
2021/03/09 10:23:04;;;;;;;14.28;9.48;;;;;;;7.27;37.46;100982.55;128242;1101;22487;-76
2021/03/09 10:25:32;;;;;;;17.00;10.80;;;;;;;7.22;37.21;100974.20;128000;1101;22485;-77
2021/03/09 10:28:03;;;;;;;17.45;10.00;;;;;;;7.35;37.37;100970.55;128181;1101;22492;-76
2021/03/09 10:30:42;;;;;;;13.58;9.00;;;;;;;7.77;38.10;100971.26;128265;1099;22558;-76
2021/03/09 10:33:11;;;;;;;14.78;10.20;;;;;;;8.02;36.80;100977.80;128212;1099;22498;-76
2021/03/09 10:36:19;;;;;;;14.10;10.90;;;;;;;7.81;36.01;100970.02;128215;1099;23350;-80
2021/03/09 10:38:47;;;;;;;17.95;10.88;;;;;;;7.58;36.40;100969.39;127889;1105;22515;-77
2021/03/09 10:41:27;;;;;;;19.75;13.58;;;;;;;7.63;36.38;100977.72;127532;1105;22541;-77
2021/03/09 10:43:55;;;;;;;19.12;12.20;;;;;;;7.87;36.39;100964.22;128099;1104;24612;-76
2021/03/09 10:46:23;;;;;;;14.75;10.75;;;;;;;7.96;36.38;100965.19;128005;1104;25090;-77
2021/03/09 10:48:51;;;;;;;20.90;10.82;;;;;;;7.76;35.77;100965.17;127596;1104;24632;-77
2021/03/09 10:51:21;;;;;;;18.40;10.78;;;;;;;7.36;35.90;100959.88;127631;1103;22524;-73
2021/03/09 10:53:50;;;;;;;14.28;9.50;;;;;;;7.09;36.49;100949.94;127642;1104;22808;-72
2021/03/09 10:56:18;;;;;;;13.48;9.73;;;;;;;6.94;37.12;100954.71;128023;1102;22538;-73
2021/03/09 10:58:46;;;;;;;14.73;9.70;;;;;;;6.67;35.96;100957.86;127939;1103;24622;-73
2021/03/09 11:01:14;;;;;;;14.60;8.55;;;;;;;6.39;35.86;100956.66;128028;1104;22706;-73
2021/03/09 11:03:42;;;;;;;14.45;10.70;;;;;;;6.15;36.35;100962.13;127956;1103;24659;-73
2021/03/09 11:06:10;;;;;;;14.35;10.13;;;;;;;6.05;36.25;100962.03;127987;1105;24369;-72
2021/03/09 11:08:38;;;;;;;11.88;8.65;;;;;;;6.04;37.40;100959.55;127964;1104;23453;-73
2021/03/09 11:11:06;;;;;;;13.75;8.90;;;;;;;5.88;36.63;100950.24;128370;1100;22954;-73
2021/03/09 11:13:34;;;;;;;18.17;9.40;;;;;;;6.01;38.14;100939.64;128371;1101;22519;-73
2021/03/09 11:16:03;;;;;;;16.37;10.13;;;;;;;6.23;38.25;100946.61;128319;1100;25039;-73
2021/03/09 11:18:31;;;;;;;16.17;9.85;;;;;;;6.41;37.31;100941.64;128086;1101;24535;-73
2021/03/09 11:20:59;;;;;;;12.70;8.98;;;;;;;6.34;37.23;100943.93;128301;1101;23048;-73
2021/03/09 11:23:28;;;;;;;14.98;9.33;;;;;;;6.21;36.87;100934.57;128289;1100;22498;-74
2021/03/09 11:25:56;;;;;;;17.92;9.05;;;;;;;6.24;36.92;100929.91;128296;1101;22493;-73